createdAt,value
2023-02-12T00:00:13.473Z,7.35
2023-02-12T00:02:40.107Z,6.28
2023-02-12T00:05:06.871Z,11.20
2023-02-12T00:07:33.491Z,12.18
2023-02-12T00:10:00.287Z,9.13
2023-02-12T00:12:26.954Z,11.70
2023-02-12T00:14:53.606Z,10.80
2023-02-12T00:17:20.251Z,7.50
2023-02-12T00:19:48.210Z,7.97
2023-02-12T00:22:14.856Z,7.22
2023-02-12T00:24:41.470Z,9.38
2023-02-12T00:27:08.064Z,8.23
2023-02-12T00:29:34.718Z,7.10
2023-02-12T00:32:01.388Z,8.90
2023-02-12T00:34:27.989Z,8.32
2023-02-12T00:36:54.616Z,9.40
2023-02-12T00:39:21.260Z,7.85
2023-02-12T00:41:47.954Z,6.35
2023-02-12T00:44:14.608Z,6.82
2023-02-12T00:46:41.319Z,10.10
2023-02-12T00:49:07.950Z,11.20
2023-02-12T00:51:34.608Z,8.60
2023-02-12T00:54:01.216Z,7.07
2023-02-12T00:56:27.861Z,8.77
2023-02-12T00:58:54.473Z,7.45
2023-02-12T01:01:21.269Z,6.60
2023-02-12T01:03:48.119Z,8.77
2023-02-12T01:06:14.797Z,9.60
2023-02-12T01:08:41.392Z,8.02
2023-02-12T01:11:08.025Z,11.32
2023-02-12T01:13:35.555Z,11.35
2023-02-12T01:16:23.559Z,9.77
2023-02-12T01:18:55.509Z,7.38
2023-02-12T01:21:27.910Z,7.35
2023-02-12T01:23:55.283Z,9.43
2023-02-12T01:26:23.002Z,10.20
2023-02-12T01:28:52.799Z,10.35
2023-02-12T01:31:25.555Z,11.27
2023-02-12T01:33:55.143Z,6.72
2023-02-12T01:36:23.238Z,6.03
2023-02-12T01:38:50.544Z,9.35
2023-02-12T01:41:20.430Z,10.50
2023-02-12T01:44:06.745Z,8.80
2023-02-12T01:46:33.452Z,7.40
2023-02-12T01:49:01.907Z,6.97
2023-02-12T01:51:29.327Z,5.95
2023-02-12T01:54:00.403Z,6.60
2023-02-12T01:56:27.145Z,6.53
2023-02-12T01:58:55.728Z,7.43
2023-02-12T02:01:26.469Z,9.13
2023-02-12T02:03:58.655Z,6.90
2023-02-12T02:06:34.199Z,7.15
2023-02-12T02:09:01.918Z,6.60
2023-02-12T02:11:47.568Z,8.77
2023-02-12T02:14:32.424Z,10.65
2023-02-12T02:17:36.487Z,10.23
2023-02-12T02:20:40.728Z,6.80
2023-02-12T02:23:31.709Z,7.97
2023-02-12T02:26:37.276Z,10.30
2023-02-12T02:29:47.270Z,7.65
2023-02-12T02:32:25.760Z,6.95
2023-02-12T02:35:13.042Z,5.68
2023-02-12T02:37:48.062Z,9.82
2023-02-12T02:40:25.377Z,10.55
2023-02-12T02:43:09.281Z,10.68
2023-02-12T02:45:45.534Z,10.57
2023-02-12T02:48:15.250Z,10.45
2023-02-12T02:50:47.649Z,10.77
2023-02-12T02:55:51.644Z,8.73
2023-02-12T02:58:24.078Z,10.82
2023-02-12T03:03:34.335Z,10.32
2023-02-12T03:06:13.116Z,12.02
2023-02-12T03:11:19.936Z,6.43
2023-02-12T03:13:51.012Z,10.40
2023-02-12T03:16:25.221Z,10.00
2023-02-12T03:18:58.354Z,8.27
2023-02-12T03:21:37.294Z,7.30
2023-02-12T03:24:29.847Z,7.13
2023-02-12T03:27:03.581Z,5.95
2023-02-12T03:29:30.815Z,7.45
2023-02-12T03:32:13.616Z,7.78
2023-02-12T03:34:51.323Z,6.55
2023-02-12T03:37:26.436Z,7.45
2023-02-12T03:40:43.669Z,9.18
2023-02-12T03:43:16.129Z,6.20
2023-02-12T03:48:32.199Z,5.47
2023-02-12T03:51:04.006Z,6.57
2023-02-12T03:53:31.730Z,7.88
2023-02-12T03:56:06.098Z,7.20
2023-02-12T03:58:35.554Z,8.38
2023-02-12T04:01:03.440Z,9.85
2023-02-12T04:03:31.738Z,10.57
2023-02-12T04:05:58.461Z,11.45
2023-02-12T04:08:27.222Z,10.88
2023-02-12T04:11:09.700Z,9.63
2023-02-12T04:13:52.741Z,7.05
2023-02-12T04:16:29.732Z,5.60
2023-02-12T04:18:57.080Z,9.90
2023-02-12T04:21:38.202Z,7.57
2023-02-12T04:24:04.794Z,8.93
2023-02-12T04:26:39.532Z,9.18
2023-02-12T04:29:27.157Z,9.45
2023-02-12T04:32:06.035Z,10.25
2023-02-12T04:34:51.683Z,10.68
2023-02-12T04:37:26.111Z,9.35
2023-02-12T04:39:54.059Z,9.23
2023-02-12T04:42:21.210Z,10.40
2023-02-12T04:44:47.888Z,10.00
2023-02-12T04:47:16.699Z,7.60
2023-02-12T04:49:43.528Z,5.90
2023-02-12T04:52:10.380Z,8.77
2023-02-12T04:54:37.322Z,6.90
2023-02-12T04:57:04.531Z,6.68
2023-02-12T04:59:31.134Z,6.68
2023-02-12T05:01:57.791Z,6.85
2023-02-12T05:04:24.533Z,6.13
2023-02-12T05:06:51.240Z,9.32
2023-02-12T05:09:20.425Z,8.95
2023-02-12T05:11:47.344Z,8.52
2023-02-12T05:14:14.102Z,8.95
2023-02-12T05:16:40.794Z,7.28
2023-02-12T05:19:09.601Z,6.50
2023-02-12T05:21:38.441Z,7.95
2023-02-12T05:24:05.714Z,9.23
2023-02-12T05:26:32.342Z,9.20
2023-02-12T05:28:59.034Z,10.32
2023-02-12T05:31:25.904Z,9.52
2023-02-12T05:33:53.048Z,10.23
2023-02-12T05:36:22.267Z,7.35
2023-02-12T05:38:49.715Z,6.50
2023-02-12T05:41:22.188Z,5.90
2023-02-12T05:46:18.132Z,9.48
2023-02-12T05:48:45.488Z,9.05
2023-02-12T05:51:20.054Z,6.00
2023-02-12T05:53:46.674Z,7.28
2023-02-12T05:56:19.983Z,5.55
2023-02-12T05:58:52.003Z,9.43
2023-02-12T06:01:21.812Z,7.78
2023-02-12T06:03:48.604Z,9.85
2023-02-12T06:06:15.404Z,10.20
2023-02-12T06:08:42.180Z,9.25
2023-02-12T06:11:13.853Z,8.30
2023-02-12T06:13:41.506Z,5.82
2023-02-12T06:16:22.945Z,7.90
2023-02-12T06:18:50.405Z,8.75
2023-02-12T06:21:17.882Z,8.80
2023-02-12T06:23:44.939Z,9.10
2023-02-12T06:26:11.925Z,9.82
2023-02-12T06:28:38.780Z,10.02
2023-02-12T06:31:05.983Z,8.13
2023-02-12T06:33:35.643Z,8.73
2023-02-12T06:36:04.651Z,7.70
2023-02-12T06:38:31.281Z,9.27
2023-02-12T06:41:02.202Z,7.03
2023-02-12T06:43:28.902Z,7.85
2023-02-12T06:45:55.892Z,7.03
2023-02-12T06:48:22.742Z,5.10
2023-02-12T06:50:49.364Z,7.53
2023-02-12T06:53:15.985Z,6.60
2023-02-12T06:55:42.590Z,8.50
2023-02-12T06:58:09.197Z,8.55
2023-02-12T07:00:35.944Z,8.27
2023-02-12T07:03:02.564Z,8.27
2023-02-12T07:05:29.145Z,8.82
2023-02-12T07:07:55.865Z,9.15
2023-02-12T07:10:22.452Z,8.93
2023-02-12T07:12:49.000Z,7.95
2023-02-12T07:15:15.846Z,5.72
2023-02-12T07:17:42.499Z,5.68
2023-02-12T07:20:09.636Z,7.28
2023-02-12T07:22:37.163Z,5.95
2023-02-12T07:25:03.997Z,5.93
2023-02-12T07:27:30.693Z,7.07
2023-02-12T07:29:59.169Z,5.90
2023-02-12T07:32:25.780Z,4.72
2023-02-12T07:34:52.544Z,5.80
2023-02-12T07:37:22.722Z,8.73
2023-02-12T07:39:50.035Z,8.85
2023-02-12T07:42:17.082Z,6.35
2023-02-12T07:44:44.804Z,7.90
2023-02-12T07:47:11.681Z,5.97
2023-02-12T07:49:38.297Z,5.85
2023-02-12T07:52:05.111Z,6.40
2023-02-12T07:54:31.827Z,8.40
2023-02-12T07:56:58.442Z,8.82
2023-02-12T07:59:25.110Z,7.00
2023-02-12T08:01:52.949Z,7.93
2023-02-12T08:04:22.317Z,8.52
2023-02-12T08:06:51.615Z,9.27
2023-02-12T08:09:20.964Z,9.27
2023-02-12T08:11:48.447Z,10.38
2023-02-12T08:14:18.237Z,5.82
2023-02-12T08:16:46.734Z,7.95
2023-02-12T08:19:20.223Z,8.63
2023-02-12T08:21:51.924Z,9.88
2023-02-12T08:24:18.652Z,10.32
2023-02-12T08:26:45.562Z,10.98
2023-02-12T08:29:18.800Z,8.70
2023-02-12T08:31:47.861Z,9.10
2023-02-12T08:34:28.675Z,9.75
2023-02-12T08:36:56.595Z,10.60
2023-02-12T08:39:25.680Z,11.57
2023-02-12T08:41:55.025Z,6.93
2023-02-12T08:44:21.936Z,9.10
2023-02-12T08:46:51.601Z,11.75
2023-02-12T08:49:21.025Z,11.35
2023-02-12T08:51:50.236Z,11.63
2023-02-12T08:54:22.669Z,10.57
2023-02-12T08:59:17.090Z,10.27
2023-02-12T09:01:44.831Z,10.18
2023-02-12T09:04:18.036Z,11.85
2023-02-12T09:06:46.525Z,11.25
2023-02-12T09:09:14.394Z,11.43
2023-02-12T09:11:41.661Z,12.32
2023-02-12T09:14:11.506Z,11.80
2023-02-12T09:16:43.265Z,11.05
2023-02-12T09:19:12.923Z,11.60
2023-02-12T09:21:39.782Z,11.20
2023-02-12T09:24:06.586Z,10.27
2023-02-12T09:26:33.275Z,12.75
2023-02-12T09:29:02.675Z,8.27
2023-02-12T09:31:31.319Z,12.20
2023-02-12T09:34:01.025Z,10.93
2023-02-12T09:36:28.461Z,9.02
2023-02-12T09:38:55.553Z,11.80
2023-02-12T09:41:42.774Z,12.38
2023-02-12T09:44:19.234Z,11.93
2023-02-12T09:46:51.784Z,11.98
2023-02-12T09:49:43.307Z,9.25
2023-02-12T09:52:26.837Z,11.88
2023-02-12T09:54:54.183Z,10.45
2023-02-12T09:57:31.536Z,10.98
2023-02-12T10:00:16.456Z,11.90
2023-02-12T10:02:43.304Z,11.23
2023-02-12T10:05:24.012Z,12.60
2023-02-12T10:08:23.891Z,10.00
2023-02-12T10:11:09.623Z,12.82
2023-02-12T10:13:45.464Z,12.98
2023-02-12T10:16:30.310Z,12.75
2023-02-12T10:19:21.222Z,14.82
2023-02-12T10:22:00.092Z,10.25
2023-02-12T10:24:59.262Z,12.80
2023-02-12T10:27:35.303Z,14.75
2023-02-12T10:30:13.771Z,11.68
2023-02-12T10:32:44.662Z,12.88
2023-02-12T10:35:16.989Z,12.07
2023-02-12T10:40:29.982Z,9.35
2023-02-12T10:42:58.858Z,9.60
2023-02-12T10:45:33.396Z,12.85
2023-02-12T10:48:34.970Z,13.68
2023-02-12T10:51:07.700Z,11.57
2023-02-12T10:53:38.321Z,9.27
2023-02-12T10:56:24.825Z,9.48
2023-02-12T10:58:59.846Z,9.35
2023-02-12T11:01:34.992Z,9.30
2023-02-12T11:04:33.164Z,10.95
2023-02-12T11:07:06.008Z,11.68
2023-02-12T11:09:48.253Z,13.27
2023-02-12T11:12:38.334Z,10.02
2023-02-12T11:15:15.934Z,14.57
2023-02-12T11:17:45.189Z,11.25
2023-02-12T11:20:18.007Z,13.35
2023-02-12T11:23:00.118Z,10.65
2023-02-12T11:25:30.426Z,9.45
2023-02-12T11:28:17.109Z,14.93
2023-02-12T11:31:12.078Z,15.23
2023-02-12T11:33:39.148Z,10.13
2023-02-12T11:36:13.053Z,13.50
2023-02-12T11:38:52.019Z,12.00
2023-02-12T11:41:37.345Z,14.27
2023-02-12T11:44:38.120Z,14.35
2023-02-12T11:47:09.154Z,16.42
2023-02-12T11:49:53.765Z,9.65
2023-02-12T11:52:26.863Z,14.30
2023-02-12T11:55:01.367Z,14.60
2023-02-12T11:57:49.341Z,11.63
2023-02-12T12:00:24.882Z,12.57
2023-02-12T12:03:15.641Z,8.23
2023-02-12T12:05:49.510Z,12.90
2023-02-12T12:08:24.939Z,12.68
2023-02-12T12:11:04.335Z,15.93
2023-02-12T12:13:37.010Z,12.60
2023-02-12T12:16:29.612Z,11.00
2023-02-12T12:19:25.166Z,10.65
2023-02-12T12:22:03.802Z,8.90
2023-02-12T12:28:03.564Z,11.70
2023-02-12T12:30:45.245Z,12.75
2023-02-12T12:33:26.608Z,12.45
2023-02-12T12:36:27.235Z,14.52
2023-02-12T12:39:21.390Z,15.05
2023-02-12T12:42:21.891Z,16.42
2023-02-12T12:45:24.167Z,11.77
2023-02-12T12:48:34.052Z,15.02
2023-02-12T12:51:18.891Z,17.70
2023-02-12T12:53:48.154Z,14.57
2023-02-12T12:56:33.099Z,12.90
2023-02-12T13:01:58.257Z,12.30
2023-02-12T13:05:06.219Z,12.05
2023-02-12T13:07:38.714Z,12.65
2023-02-12T13:10:35.505Z,12.82
2023-02-12T13:13:08.955Z,12.75
2023-02-12T13:15:38.772Z,11.70
2023-02-12T13:18:24.247Z,10.93
2023-02-12T13:21:04.540Z,10.35
2023-02-12T13:23:54.741Z,14.27
2023-02-12T13:26:30.750Z,11.00
2023-02-12T13:29:10.220Z,14.88
2023-02-12T13:31:49.896Z,14.60
2023-02-12T13:34:18.748Z,13.25
2023-02-12T13:36:45.680Z,13.45
2023-02-12T13:39:40.843Z,14.02
2023-02-12T13:42:07.437Z,18.25
2023-02-12T13:44:49.101Z,17.92
2023-02-12T13:47:37.357Z,20.10
2023-02-12T13:50:23.412Z,13.15
2023-02-12T13:52:56.632Z,15.23
2023-02-12T13:55:34.900Z,15.38
2023-02-12T13:58:32.414Z,15.20
2023-02-12T14:03:31.772Z,11.70
2023-02-12T14:06:28.656Z,13.57
2023-02-12T14:09:10.814Z,17.77
2023-02-12T14:11:50.123Z,18.98
2023-02-12T14:14:31.078Z,17.13
2023-02-12T14:16:57.839Z,15.50
2023-02-12T14:19:40.483Z,12.75
2023-02-12T14:22:30.915Z,19.52
2023-02-12T14:25:23.596Z,18.90
2023-02-12T14:27:55.561Z,13.93
2023-02-12T14:30:31.403Z,18.00
2023-02-12T14:33:06.983Z,13.68
2023-02-12T14:35:35.475Z,15.02
2023-02-12T14:38:23.804Z,13.48
2023-02-12T14:40:52.626Z,11.50
2023-02-12T14:43:57.168Z,12.48
2023-02-12T14:46:23.964Z,12.95
2023-02-12T14:48:52.827Z,14.48
2023-02-12T14:51:34.088Z,14.38
2023-02-12T14:54:02.252Z,14.98
2023-02-12T14:56:29.065Z,15.60
2023-02-12T14:58:58.837Z,15.35
2023-02-12T15:01:34.718Z,14.15
2023-02-12T15:04:39.380Z,10.07
2023-02-12T15:07:13.070Z,10.63
2023-02-12T15:09:47.587Z,10.57
2023-02-12T15:12:20.685Z,14.23
2023-02-12T15:14:56.480Z,11.60
2023-02-12T15:17:29.912Z,12.23
2023-02-12T15:20:08.247Z,14.35
2023-02-12T15:22:40.688Z,13.10
2023-02-12T15:25:23.602Z,10.27
2023-02-12T15:27:53.582Z,16.83
2023-02-12T15:30:26.389Z,13.85
2023-02-12T15:32:55.965Z,14.25
2023-02-12T15:35:28.220Z,9.77
2023-02-12T15:38:00.238Z,13.90
2023-02-12T15:40:28.520Z,12.63
2023-02-12T15:43:04.052Z,13.90
2023-02-12T15:45:33.444Z,15.35
2023-02-12T15:48:09.049Z,11.25
2023-02-12T15:50:45.858Z,9.27
2023-02-12T15:53:13.607Z,10.35
2023-02-12T15:55:43.895Z,9.30
2023-02-12T15:58:27.114Z,8.93
2023-02-12T16:00:56.019Z,8.38
2023-02-12T16:03:28.915Z,7.90
2023-02-12T16:06:13.198Z,8.23
2023-02-12T16:08:49.556Z,10.32
2023-02-12T16:11:23.340Z,11.70
2023-02-12T16:13:53.177Z,11.10
2023-02-12T16:16:24.024Z,13.10
2023-02-12T16:19:06.760Z,11.77
2023-02-12T16:21:37.958Z,9.52
2023-02-12T16:24:06.257Z,11.05
2023-02-12T16:26:33.035Z,10.90
2023-02-12T16:28:59.854Z,10.45
2023-02-12T16:31:27.799Z,11.80
2023-02-12T16:33:59.483Z,13.02
2023-02-12T16:36:26.080Z,10.98
2023-02-12T16:38:57.267Z,11.98
2023-02-12T16:41:31.198Z,11.70
2023-02-12T16:44:00.656Z,10.65
2023-02-12T16:46:32.810Z,10.77
2023-02-12T16:51:27.549Z,11.77
2023-02-12T16:53:57.555Z,11.55
2023-02-12T16:56:27.076Z,11.50
2023-02-12T16:58:57.817Z,10.82
2023-02-12T17:01:30.968Z,11.15
2023-02-12T17:03:59.130Z,9.52
2023-02-12T17:06:28.819Z,10.45
2023-02-12T17:08:56.437Z,11.60
2023-02-12T17:11:24.162Z,11.32
2023-02-12T17:13:53.196Z,12.25
2023-02-12T17:16:30.424Z,11.07
2023-02-12T17:18:58.807Z,12.07
2023-02-12T17:21:31.817Z,14.70
2023-02-12T17:23:58.542Z,12.43
2023-02-12T17:26:26.677Z,11.55
2023-02-12T17:28:53.375Z,12.20
2023-02-12T17:31:20.836Z,11.45
2023-02-12T17:33:47.682Z,9.95
2023-02-12T17:36:14.443Z,10.65
2023-02-12T17:38:41.162Z,10.15
2023-02-12T17:41:12.152Z,11.00
2023-02-12T17:43:38.951Z,10.18
2023-02-12T17:46:14.163Z,10.60
2023-02-12T17:48:40.880Z,11.05
2023-02-12T17:51:09.796Z,11.65
2023-02-12T17:53:36.406Z,11.55
2023-02-12T17:56:03.343Z,10.55
2023-02-12T17:58:30.263Z,12.50
2023-02-12T18:00:57.574Z,11.07
2023-02-12T18:03:24.535Z,12.40
2023-02-12T18:05:51.123Z,11.00
2023-02-12T18:08:17.798Z,13.20
2023-02-12T18:10:45.704Z,14.63
2023-02-12T18:13:13.881Z,12.52
2023-02-12T18:15:41.347Z,12.57
2023-02-12T18:18:08.691Z,14.63
2023-02-12T18:20:35.903Z,10.93
2023-02-12T18:23:03.545Z,10.68
2023-02-12T18:25:30.198Z,10.20
2023-02-12T18:27:56.936Z,12.25
2023-02-12T18:30:23.944Z,11.05
2023-02-12T18:32:50.569Z,13.60
2023-02-12T18:35:17.243Z,11.30
2023-02-12T18:37:43.959Z,9.57
2023-02-12T18:40:11.573Z,10.52
2023-02-12T18:42:38.191Z,12.80
2023-02-12T18:45:05.311Z,10.88
2023-02-12T18:47:31.966Z,11.40
2023-02-12T18:49:58.695Z,10.27
2023-02-12T18:52:25.529Z,11.27
2023-02-12T18:54:53.180Z,10.13
2023-02-12T18:57:20.007Z,9.50
2023-02-12T18:59:46.681Z,9.10
2023-02-12T19:02:13.985Z,9.48
2023-02-12T19:04:40.874Z,10.63
2023-02-12T19:07:07.627Z,12.15
2023-02-12T19:09:34.414Z,16.10
2023-02-12T19:12:01.096Z,12.82
2023-02-12T19:14:28.296Z,13.63
2023-02-12T19:16:54.954Z,13.00
2023-02-12T19:19:22.692Z,12.23
2023-02-12T19:21:49.726Z,12.43
2023-02-12T19:24:16.909Z,13.68
2023-02-12T19:26:46.844Z,12.20
2023-02-12T19:29:14.101Z,11.52
2023-02-12T19:31:44.380Z,13.93
2023-02-12T19:34:19.573Z,12.40
2023-02-12T19:36:47.751Z,13.32
2023-02-12T19:39:20.542Z,13.55
2023-02-12T19:41:47.520Z,11.90
2023-02-12T19:44:18.054Z,13.07
2023-02-12T19:46:46.109Z,14.15
2023-02-12T19:49:16.403Z,11.32
2023-02-12T19:51:43.490Z,12.05
2023-02-12T19:54:12.493Z,11.30
2023-02-12T19:56:39.540Z,11.13
2023-02-12T19:59:06.903Z,12.07
2023-02-12T20:01:34.707Z,12.05
2023-02-12T20:04:02.149Z,11.27
2023-02-12T20:06:35.615Z,11.45
2023-02-12T20:09:03.598Z,12.18
2023-02-12T20:11:31.750Z,12.02
2023-02-12T20:13:58.959Z,13.05
2023-02-12T20:16:31.242Z,11.38
2023-02-12T20:19:02.114Z,11.48
2023-02-12T20:21:29.264Z,11.57
2023-02-12T20:23:56.687Z,10.93
2023-02-12T20:26:24.240Z,11.10
2023-02-12T20:28:51.399Z,10.85
2023-02-12T20:31:21.340Z,9.20
2023-02-12T20:33:48.766Z,10.45
2023-02-12T20:36:15.882Z,9.60
2023-02-12T20:38:44.939Z,12.13
2023-02-12T20:41:12.274Z,11.13
2023-02-12T20:43:39.099Z,11.07
2023-02-12T20:46:08.777Z,11.48
2023-02-12T20:48:36.811Z,9.93
2023-02-12T20:51:08.884Z,9.85
2023-02-12T20:53:36.199Z,15.55
2023-02-12T20:56:04.796Z,15.38
2023-02-12T20:58:31.517Z,10.55
2023-02-12T21:01:10.024Z,9.30
2023-02-12T21:03:37.434Z,10.77
2023-02-12T21:06:04.653Z,11.52
2023-02-12T21:08:31.486Z,11.88
2023-02-12T21:11:07.905Z,9.90
2023-02-12T21:13:34.641Z,9.45
2023-02-12T21:16:10.648Z,9.68
2023-02-12T21:18:37.815Z,10.88
2023-02-12T21:21:07.061Z,9.73
2023-02-12T21:23:34.805Z,8.10
2023-02-12T21:26:16.399Z,10.02
2023-02-12T21:28:44.260Z,11.10
2023-02-12T21:31:15.500Z,9.60
2023-02-12T21:33:44.438Z,10.05
2023-02-12T21:36:16.754Z,10.32
2023-02-12T21:38:45.470Z,9.10
2023-02-12T21:41:16.237Z,9.48
2023-02-12T21:43:44.737Z,10.45
2023-02-12T21:46:12.175Z,10.10
2023-02-12T21:48:42.000Z,9.52
2023-02-12T21:51:26.016Z,9.43
2023-02-12T21:54:00.849Z,9.25
2023-02-12T21:56:27.583Z,9.60
2023-02-12T21:58:55.417Z,11.38
2023-02-12T22:01:24.912Z,9.38
2023-02-12T22:03:52.456Z,9.27
2023-02-12T22:06:22.348Z,9.65
2023-02-12T22:08:50.117Z,9.02
2023-02-12T22:11:17.207Z,12.70
2023-02-12T22:13:44.442Z,10.95
2023-02-12T22:16:14.416Z,7.90
2023-02-12T22:18:42.626Z,8.95
2023-02-12T22:21:13.433Z,10.38
2023-02-12T22:23:41.293Z,11.00
2023-02-12T22:26:16.874Z,8.60
2023-02-12T22:28:45.941Z,8.52
2023-02-12T22:31:15.075Z,8.13
2023-02-12T22:33:41.726Z,11.00
2023-02-12T22:36:09.845Z,8.60
2023-02-12T22:38:38.229Z,9.48
2023-02-12T22:41:05.717Z,10.10
2023-02-12T22:43:34.628Z,10.23
2023-02-12T22:46:01.683Z,8.95
2023-02-12T22:48:28.826Z,11.13
2023-02-12T22:50:56.146Z,11.10
2023-02-12T22:53:24.008Z,9.27
2023-02-12T22:55:51.407Z,8.13
2023-02-12T22:58:18.261Z,11.48
2023-02-12T23:00:45.255Z,11.07
2023-02-12T23:03:11.926Z,8.50
2023-02-12T23:05:39.170Z,9.23
2023-02-12T23:08:06.494Z,8.85
2023-02-12T23:10:33.951Z,8.00
2023-02-12T23:13:02.763Z,9.48
2023-02-12T23:15:30.240Z,9.10
2023-02-12T23:17:56.925Z,8.15
2023-02-12T23:20:24.076Z,10.93
2023-02-12T23:22:50.739Z,9.68
2023-02-12T23:25:17.434Z,8.50
2023-02-12T23:27:44.053Z,9.50
2023-02-12T23:30:11.241Z,10.25
2023-02-12T23:32:37.849Z,9.82
2023-02-12T23:35:04.807Z,7.65
2023-02-12T23:37:31.436Z,7.50
2023-02-12T23:39:58.074Z,11.80
2023-02-12T23:42:24.723Z,8.40
2023-02-12T23:44:51.430Z,10.88
2023-02-12T23:47:18.447Z,11.02
2023-02-12T23:49:45.295Z,9.70
2023-02-12T23:52:11.941Z,9.23
2023-02-12T23:54:38.628Z,8.60
2023-02-12T23:57:05.649Z,7.95
2023-02-12T23:59:32.303Z,11.60
